Time;durP1;ratioP1;P1;durP2;ratioP2;P2;SDS_P1;SDS_P2;PMS_P1;PMS_P2;Temp;Humidity;BMP_temperature;BMP_pressure;BME280_temperature;BME280_humidity;BME280_pressure;Samples;Min_cycle;Max_cycle;Signal;HPM_P1;HPM_P2
2022/10/11 00:00:51;;;;;;;13.17;12.17;;;;;;;;;;1736962;80;615653;-74
2022/10/11 00:03:20;;;;;;;13.47;12.10;;;;;;;;;;1735936;80;616989;-73
2022/10/11 00:05:48;;;;;;;12.80;11.53;;;;;;;;;;1765131;80;615073;-74
2022/10/11 00:08:17;;;;;;;13.90;12.73;;;;;;;;;;1706093;80;616904;-74
2022/10/11 00:10:45;;;;;;;13.27;12.27;;;;;;;;;;1712161;80;615024;-73
2022/10/11 00:13:14;;;;;;;13.70;12.40;;;;;;;;;;1728769;79;617649;-73
2022/10/11 00:15:42;;;;;;;15.20;12.33;;;;;;;;;;1714231;80;616119;-74
2022/10/11 00:18:11;;;;;;;12.97;11.73;;;;;;;;;;1714912;80;616827;-73
2022/10/11 00:23:29;;;;;;;14.63;11.80;;;;;;;;;;1896634;72;121845;-72
2022/10/11 00:25:58;;;;;;;13.50;11.97;;;;;;;;;;1823161;74;617711;-72
2022/10/11 00:28:27;;;;;;;12.77;11.77;;;;;;;;;;1817615;76;617220;-72
2022/10/11 00:30:56;;;;;;;13.43;12.10;;;;;;;;;;1719461;77;617083;-72
2022/10/11 00:33:25;;;;;;;12.50;11.30;;;;;;;;;;1775943;75;617204;-74
2022/10/11 00:35:54;;;;;;;11.83;10.63;;;;;;;;;;1725265;79;615263;-75
2022/10/11 00:38:23;;;;;;;12.33;11.13;;;;;;;;;;1740056;79;617089;-75
2022/10/11 00:40:52;;;;;;;11.67;10.63;;;;;;;;;;1769910;78;615972;-74
2022/10/11 00:43:22;;;;;;;12.23;11.00;;;;;;;;;;1751589;78;617971;-74
2022/10/11 00:46:00;;;;;;;11.70;10.60;;;;;;;;;;1831204;75;616099;-74
2022/10/11 00:48:30;;;;;;;12.53;11.33;;;;;;;;;;1835665;75;617256;-74
2022/10/11 00:50:59;;;;;;;12.13;11.00;;;;;;;;;;1863644;75;616955;-74
2022/10/11 00:53:30;;;;;;;13.80;11.37;;;;;;;;;;1758185;76;617026;-74
2022/10/11 00:56:01;;;;;;;12.70;11.37;;;;;;;;;;1784894;77;617061;-74
2022/10/11 00:58:30;;;;;;;12.77;11.50;;;;;;;;;;1800100;78;617076;-74
2022/10/11 01:00:59;;;;;;;12.93;11.27;;;;;;;;;;1841402;76;617811;-73
2022/10/11 01:03:34;;;;;;;11.93;10.93;;;;;;;;;;1806238;77;617939;-73
2022/10/11 01:06:03;;;;;;;12.53;11.33;;;;;;;;;;1834073;76;617021;-73
2022/10/11 01:08:32;;;;;;;12.80;11.43;;;;;;;;;;1837020;77;617219;-73
2022/10/11 01:11:00;;;;;;;12.57;11.47;;;;;;;;;;1790730;78;617163;-73
2022/10/11 01:13:32;;;;;;;12.77;11.53;;;;;;;;;;1807706;76;617075;-73
2022/10/11 01:16:02;;;;;;;12.47;11.33;;;;;;;;;;1856206;76;617048;-73
2022/10/11 01:18:32;;;;;;;11.80;10.83;;;;;;;;;;1837333;76;617768;-73
2022/10/11 01:21:03;;;;;;;14.60;12.10;;;;;;;;;;1852427;74;617967;-73
2022/10/11 01:23:52;;;;;;;12.47;11.50;;;;;;;;;;1795124;77;617900;-73
2022/10/11 01:26:42;;;;;;;13.23;11.80;;;;;;;;;;1801302;76;616948;-73
2022/10/11 01:29:13;;;;;;;14.43;11.93;;;;;;;;;;1796030;76;616925;-74
2022/10/11 01:31:43;;;;;;;14.90;12.10;;;;;;;;;;1809505;77;615235;-73
2022/10/11 01:34:15;;;;;;;13.47;12.10;;;;;;;;;;1801608;76;616999;-73
2022/10/11 01:36:45;;;;;;;12.67;11.30;;;;;;;;;;1809303;77;615181;-73
2022/10/11 01:39:15;;;;;;;14.30;12.60;;;;;;;;;;1800982;76;617721;-73
2022/10/11 01:41:45;;;;;;;14.87;12.17;;;;;;;;;;1816491;77;615917;-73
2022/10/11 01:44:14;;;;;;;15.47;11.43;;;;;;;;;;1835373;77;616861;-73
2022/10/11 01:46:43;;;;;;;13.27;11.23;;;;;;;;;;1785883;78;616096;-73
2022/10/11 01:49:11;;;;;;;14.63;11.13;;;;;;;;;;1779418;77;616921;-74
2022/10/11 01:51:42;;;;;;;13.90;11.73;;;;;;;;;;1787406;78;615974;-73
2022/10/11 01:54:17;;;;;;;16.13;11.33;;;;;;;;;;1805261;77;617072;-73
2022/10/11 01:56:49;;;;;;;13.30;11.23;;;;;;;;;;1822751;76;616015;-73
2022/10/11 01:59:21;;;;;;;17.80;11.73;;;;;;;;;;1833248;77;616969;-73
2022/10/11 02:01:53;;;;;;;12.90;11.80;;;;;;;;;;1818763;77;615750;-73
2022/10/11 02:04:24;;;;;;;12.87;11.57;;;;;;;;;;1844872;76;617044;-73
2022/10/11 02:06:54;;;;;;;12.97;11.77;;;;;;;;;;1843773;76;615105;-73
2022/10/11 02:09:24;;;;;;;12.43;11.43;;;;;;;;;;1844766;76;616915;-73
2022/10/11 02:11:54;;;;;;;14.53;12.10;;;;;;;;;;1818453;77;615873;-73
2022/10/11 02:14:24;;;;;;;13.83;12.53;;;;;;;;;;1844230;74;617053;-73
2022/10/11 02:16:55;;;;;;;13.60;11.60;;;;;;;;;;1845159;76;615674;-73
2022/10/11 02:19:25;;;;;;;15.30;12.10;;;;;;;;;;1845037;76;616581;-73
2022/10/11 02:21:55;;;;;;;13.40;11.60;;;;;;;;;;1845103;76;614926;-73
2022/10/11 02:24:26;;;;;;;13.20;11.80;;;;;;;;;;1845122;75;617718;-73
2022/10/11 02:26:56;;;;;;;13.27;11.93;;;;;;;;;;1839041;77;616916;-73
2022/10/11 02:29:26;;;;;;;12.33;11.17;;;;;;;;;;1808418;77;617949;-73
2022/10/11 02:31:56;;;;;;;14.07;11.87;;;;;;;;;;1813028;77;616973;-73
2022/10/11 02:34:26;;;;;;;12.00;10.90;;;;;;;;;;1807598;76;616512;-73
2022/10/11 02:36:59;;;;;;;14.97;12.80;;;;;;;;;;1771192;76;617718;-73
2022/10/11 02:39:29;;;;;;;14.93;12.03;;;;;;;;;;1845180;76;617850;-73
2022/10/11 02:41:59;;;;;;;15.10;12.30;;;;;;;;;;1837104;76;616965;-73
2022/10/11 02:44:31;;;;;;;13.30;11.80;;;;;;;;;;1845142;76;617146;-73
2022/10/11 02:47:00;;;;;;;16.70;11.50;;;;;;;;;;1835917;76;616825;-74
2022/10/11 02:49:29;;;;;;;16.27;12.10;;;;;;;;;;1844440;76;617832;-73
2022/10/11 02:51:59;;;;;;;17.47;12.53;;;;;;;;;;1835676;76;617690;-74
2022/10/11 02:54:28;;;;;;;12.40;11.30;;;;;;;;;;1845030;76;616797;-74
2022/10/11 02:56:56;;;;;;;17.33;11.77;;;;;;;;;;1834560;77;616475;-73
2022/10/11 02:59:25;;;;;;;13.23;11.87;;;;;;;;;;1817155;77;617086;-73
2022/10/11 03:01:59;;;;;;;13.30;12.00;;;;;;;;;;1845095;76;615125;-73
2022/10/11 03:04:28;;;;;;;13.03;11.73;;;;;;;;;;1818862;77;617797;-74
2022/10/11 03:06:56;;;;;;;13.37;11.67;;;;;;;;;;1810893;77;617729;-74
2022/10/11 03:09:25;;;;;;;13.07;11.47;;;;;;;;;;1844074;76;617830;-74
2022/10/11 03:11:55;;;;;;;13.70;11.50;;;;;;;;;;1843937;76;616860;-73
2022/10/11 03:14:24;;;;;;;12.70;11.40;;;;;;;;;;1837687;76;617092;-73
2022/10/11 03:16:53;;;;;;;16.43;11.80;;;;;;;;;;1845125;76;615849;-73
2022/10/11 03:19:21;;;;;;;12.73;11.50;;;;;;;;;;1843572;76;617649;-74
2022/10/11 03:21:50;;;;;;;13.90;11.93;;;;;;;;;;1787473;77;615806;-73
2022/10/11 03:24:18;;;;;;;15.73;11.90;;;;;;;;;;1772012;77;618140;-72
2022/10/11 03:26:47;;;;;;;15.23;11.80;;;;;;;;;;1809485;77;616147;-73
2022/10/11 03:29:15;;;;;;;16.43;11.97;;;;;;;;;;1829936;76;616952;-73
2022/10/11 03:31:44;;;;;;;18.10;12.03;;;;;;;;;;1838271;76;616075;-73
2022/10/11 03:34:13;;;;;;;12.53;11.40;;;;;;;;;;1801385;76;617669;-73
2022/10/11 03:36:41;;;;;;;15.80;12.20;;;;;;;;;;1785250;77;616128;-73
2022/10/11 03:39:09;;;;;;;13.20;11.10;;;;;;;;;;1830391;76;616861;-73
2022/10/11 03:41:48;;;;;;;12.73;11.63;;;;;;;;;;1784415;77;617752;-74
2022/10/11 03:44:17;;;;;;;12.07;11.07;;;;;;;;;;1801511;76;617001;-73
2022/10/11 03:46:45;;;;;;;14.07;10.67;;;;;;;;;;1838122;76;615963;-73
2022/10/11 03:49:13;;;;;;;13.17;11.73;;;;;;;;;;1801596;77;617767;-73
2022/10/11 03:51:42;;;;;;;12.23;11.07;;;;;;;;;;1808331;77;616112;-73
2022/10/11 03:54:10;;;;;;;15.27;11.60;;;;;;;;;;1801009;76;617732;-73
2022/10/11 03:56:39;;;;;;;17.27;12.13;;;;;;;;;;1809233;77;617865;-73
2022/10/11 03:59:09;;;;;;;12.60;11.50;;;;;;;;;;1801154;77;616885;-73
2022/10/11 04:01:37;;;;;;;13.13;11.67;;;;;;;;;;1775866;78;617873;-73
2022/10/11 04:04:06;;;;;;;13.00;11.83;;;;;;;;;;1742242;80;617718;-74
2022/10/11 04:06:36;;;;;;;12.67;11.47;;;;;;;;;;1803543;77;617667;-73
2022/10/11 04:09:04;;;;;;;12.37;11.10;;;;;;;;;;1795681;77;616964;-73
2022/10/11 04:11:33;;;;;;;17.43;11.60;;;;;;;;;;1753972;79;617870;-73
2022/10/11 04:14:02;;;;;;;13.27;11.97;;;;;;;;;;1770675;78;617038;-73
2022/10/11 04:16:31;;;;;;;12.97;11.90;;;;;;;;;;1777534;79;617875;-73
2022/10/11 04:19:01;;;;;;;16.67;11.57;;;;;;;;;;1808047;77;616991;-73
2022/10/11 04:21:29;;;;;;;14.30;11.80;;;;;;;;;;1763485;79;618005;-73
2022/10/11 04:23:57;;;;;;;14.60;11.07;;;;;;;;;;1755426;79;617825;-73
2022/10/11 04:26:27;;;;;;;13.43;12.10;;;;;;;;;;1763090;79;618008;-73
2022/10/11 04:28:56;;;;;;;12.53;11.37;;;;;;;;;;1809632;78;617153;-74
2022/10/11 04:31:24;;;;;;;12.50;11.27;;;;;;;;;;1763517;79;617798;-73
2022/10/11 04:33:53;;;;;;;13.03;11.23;;;;;;;;;;1763219;79;615918;-73
2022/10/11 04:36:22;;;;;;;12.33;11.13;;;;;;;;;;1769548;78;617109;-73
2022/10/11 04:38:51;;;;;;;13.27;11.97;;;;;;;;;;1817574;78;615693;-73
2022/10/11 04:41:20;;;;;;;16.13;12.10;;;;;;;;;;1763607;79;617887;-73
2022/10/11 04:43:49;;;;;;;13.37;11.97;;;;;;;;;;1794081;78;615912;-73
2022/10/11 04:46:17;;;;;;;12.97;11.70;;;;;;;;;;1786256;78;617676;-73
2022/10/11 04:48:46;;;;;;;12.67;11.57;;;;;;;;;;1763019;79;615979;-73
2022/10/11 04:51:15;;;;;;;12.43;11.37;;;;;;;;;;1785500;78;617808;-73
2022/10/11 04:53:43;;;;;;;13.53;11.73;;;;;;;;;;1817329;78;615969;-73
2022/10/11 04:56:13;;;;;;;12.50;11.33;;;;;;;;;;1809441;78;617645;-73
2022/10/11 04:58:42;;;;;;;13.03;12.17;;;;;;;;;;1794171;78;615913;-73
2022/10/11 05:01:11;;;;;;;12.77;11.43;;;;;;;;;;1755885;79;617831;-73
2022/10/11 05:03:40;;;;;;;14.80;11.60;;;;;;;;;;1817604;78;615910;-74
2022/10/11 05:06:10;;;;;;;13.90;12.53;;;;;;;;;;1785547;78;617773;-73
2022/10/11 05:08:39;;;;;;;14.97;11.60;;;;;;;;;;1817686;78;617013;-73
2022/10/11 05:11:09;;;;;;;14.07;12.77;;;;;;;;;;1755127;79;617731;-73
2022/10/11 05:13:38;;;;;;;12.60;11.33;;;;;;;;;;1817693;78;616876;-73
2022/10/11 05:16:07;;;;;;;12.60;11.30;;;;;;;;;;1809558;78;617909;-73
2022/10/11 05:18:36;;;;;;;13.07;11.70;;;;;;;;;;1817770;78;617755;-73
2022/10/11 05:21:06;;;;;;;12.83;11.70;;;;;;;;;;1808871;78;617998;-73
2022/10/11 05:23:35;;;;;;;13.83;12.40;;;;;;;;;;1755231;80;618001;-73
2022/10/11 05:26:03;;;;;;;14.00;12.60;;;;;;;;;;1795570;77;617094;-73
2022/10/11 05:28:31;;;;;;;14.07;12.67;;;;;;;;;;1828478;76;617803;-73
2022/10/11 05:31:00;;;;;;;13.47;12.27;;;;;;;;;;1795654;78;617782;-73
2022/10/11 05:33:28;;;;;;;13.10;12.20;;;;;;;;;;1803565;77;617808;-73
2022/10/11 05:35:57;;;;;;;12.63;11.80;;;;;;;;;;1795627;77;617853;-73
2022/10/11 05:38:26;;;;;;;14.10;13.00;;;;;;;;;;1803287;77;618271;-73
2022/10/11 05:40:55;;;;;;;14.43;13.30;;;;;;;;;;1825946;76;617870;-73
2022/10/11 05:43:23;;;;;;;14.60;13.50;;;;;;;;;;1807370;77;617921;-73
2022/10/11 05:45:51;;;;;;;15.33;14.10;;;;;;;;;;1812390;77;615997;-73
2022/10/11 05:48:22;;;;;;;14.33;12.97;;;;;;;;;;1812441;77;617685;-73
2022/10/11 05:50:51;;;;;;;14.97;13.63;;;;;;;;;;1812314;77;616019;-73
2022/10/11 05:53:19;;;;;;;15.90;14.37;;;;;;;;;;1826488;76;617938;-74
2022/10/11 05:55:51;;;;;;;14.90;13.77;;;;;;;;;;1834474;76;615991;-73
2022/10/11 05:58:20;;;;;;;15.63;14.37;;;;;;;;;;1812278;77;616876;-73
2022/10/11 06:00:49;;;;;;;15.17;13.83;;;;;;;;;;1834466;76;616037;-73
2022/10/11 06:03:18;;;;;;;15.30;13.93;;;;;;;;;;1827143;76;617830;-73
2022/10/11 06:05:47;;;;;;;16.00;14.50;;;;;;;;;;1812418;77;616004;-74
2022/10/11 06:08:15;;;;;;;14.70;13.37;;;;;;;;;;1826711;76;617791;-73
2022/10/11 06:10:44;;;;;;;14.90;13.73;;;;;;;;;;1737852;80;615707;-74
2022/10/11 06:13:13;;;;;;;15.20;13.63;;;;;;;;;;1757175;80;616558;-74
2022/10/11 06:15:41;;;;;;;15.43;13.97;;;;;;;;;;1738152;79;615935;-74
2022/10/11 06:18:10;;;;;;;15.10;13.60;;;;;;;;;;1730754;79;616993;-73
2022/10/11 06:20:41;;;;;;;14.80;13.47;;;;;;;;;;1796554;77;615374;-74
2022/10/11 06:23:11;;;;;;;15.03;13.83;;;;;;;;;;1765055;79;617736;-74
2022/10/11 06:25:40;;;;;;;14.37;13.27;;;;;;;;;;1772702;79;615884;-73
2022/10/11 06:28:08;;;;;;;15.90;14.50;;;;;;;;;;1716017;80;617661;-73
2022/10/11 06:30:38;;;;;;;14.50;13.17;;;;;;;;;;1764893;80;617762;-74
2022/10/11 06:33:07;;;;;;;20.60;14.67;;;;;;;;;;1757302;79;618069;-74
2022/10/11 06:35:35;;;;;;;15.20;13.80;;;;;;;;;;1785549;78;617732;-73
2022/10/11 06:38:04;;;;;;;16.17;14.17;;;;;;;;;;1778064;78;617803;-73
2022/10/11 06:40:32;;;;;;;19.33;14.10;;;;;;;;;;1785423;78;617835;-74
2022/10/11 06:43:01;;;;;;;14.93;13.50;;;;;;;;;;1757327;79;616719;-74
2022/10/11 06:45:29;;;;;;;19.40;14.63;;;;;;;;;;1762374;79;616944;-74
2022/10/11 06:47:58;;;;;;;16.53;14.93;;;;;;;;;;1754541;79;617633;-74
2022/10/11 06:50:26;;;;;;;15.30;13.40;;;;;;;;;;1764991;80;617038;-74
2022/10/11 06:52:55;;;;;;;14.70;13.47;;;;;;;;;;1730918;79;616531;-74
2022/10/11 06:55:23;;;;;;;15.40;13.93;;;;;;;;;;1764940;79;618134;-74
2022/10/11 06:57:51;;;;;;;15.93;14.47;;;;;;;;;;1786303;78;615735;-74
2022/10/11 07:00:23;;;;;;;16.57;14.83;;;;;;;;;;1778311;79;617010;-74
2022/10/11 07:02:52;;;;;;;14.73;13.30;;;;;;;;;;1803271;77;615684;-74
2022/10/11 07:05:24;;;;;;;17.83;13.20;;;;;;;;;;1803287;77;616894;-74
2022/10/11 07:07:52;;;;;;;18.17;13.90;;;;;;;;;;1803388;77;615815;-74
2022/10/11 07:10:21;;;;;;;17.83;12.83;;;;;;;;;;1737796;80;617720;-74
2022/10/11 07:12:50;;;;;;;13.07;11.97;;;;;;;;;;1785690;78;615902;-74
2022/10/11 07:15:18;;;;;;;13.73;12.30;;;;;;;;;;1756871;79;617827;-74
2022/10/11 07:17:47;;;;;;;14.67;12.67;;;;;;;;;;1764743;79;615943;-73
2022/10/11 07:20:15;;;;;;;14.43;12.90;;;;;;;;;;1757058;80;616898;-74
2022/10/11 07:22:44;;;;;;;14.03;12.33;;;;;;;;;;1737925;79;615236;-74
2022/10/11 07:25:12;;;;;;;14.10;13.07;;;;;;;;;;1778345;78;616860;-74
2022/10/11 07:27:41;;;;;;;16.23;14.57;;;;;;;;;;1764802;79;615218;-73
2022/10/11 07:30:12;;;;;;;15.20;13.80;;;;;;;;;;1777974;78;617859;-74
2022/10/11 07:32:41;;;;;;;14.47;13.07;;;;;;;;;;1764972;80;615937;-74
2022/10/11 07:35:10;;;;;;;15.40;13.97;;;;;;;;;;1757128;79;617864;-73
2022/10/11 07:37:39;;;;;;;14.80;13.50;;;;;;;;;;1764867;79;617879;-74
2022/10/11 07:40:10;;;;;;;15.33;14.03;;;;;;;;;;1777841;78;617020;-74
2022/10/11 07:42:38;;;;;;;13.67;12.53;;;;;;;;;;1764754;79;617850;-75
2022/10/11 07:45:08;;;;;;;16.13;14.47;;;;;;;;;;1754010;79;617743;-74
2022/10/11 07:47:36;;;;;;;15.60;14.17;;;;;;;;;;1785631;78;617866;-75
2022/10/11 07:50:07;;;;;;;20.20;13.80;;;;;;;;;;1708089;80;617050;-74
2022/10/11 07:52:35;;;;;;;20.30;14.13;;;;;;;;;;1764352;79;616964;-74
2022/10/11 07:55:04;;;;;;;18.17;15.17;;;;;;;;;;1756913;79;617826;-74
2022/10/11 07:57:33;;;;;;;15.47;13.83;;;;;;;;;;1785263;78;617858;-73
2022/10/11 08:00:01;;;;;;;16.27;14.67;;;;;;;;;;1753889;79;616803;-73
2022/10/11 08:02:30;;;;;;;22.73;16.23;;;;;;;;;;1764799;80;617007;-74
2022/10/11 08:04:59;;;;;;;17.77;15.77;;;;;;;;;;1757175;80;616876;-74
2022/10/11 08:07:28;;;;;;;22.60;16.63;;;;;;;;;;1785366;78;617827;-74
2022/10/11 08:09:57;;;;;;;20.57;16.97;;;;;;;;;;1730927;80;616924;-74
2022/10/11 08:12:26;;;;;;;20.60;16.37;;;;;;;;;;1785386;78;617778;-74
2022/10/11 08:14:55;;;;;;;18.90;15.17;;;;;;;;;;1730503;79;617826;-75
2022/10/11 08:17:24;;;;;;;22.00;14.87;;;;;;;;;;1764918;79;616803;-75
2022/10/11 08:19:53;;;;;;;15.97;14.40;;;;;;;;;;1738786;80;615975;-75
2022/10/11 08:22:24;;;;;;;18.37;14.60;;;;;;;;;;1764750;79;617811;-74
2022/10/11 08:24:53;;;;;;;19.63;14.00;;;;;;;;;;1764909;79;616003;-75
2022/10/11 08:27:22;;;;;;;16.37;14.77;;;;;;;;;;1764746;79;616959;-77
2022/10/11 08:29:51;;;;;;;16.17;14.33;;;;;;;;;;1764855;79;616000;-76
2022/10/11 08:32:20;;;;;;;18.77;14.23;;;;;;;;;;1757058;80;617840;-76
2022/10/11 08:34:48;;;;;;;20.63;14.03;;;;;;;;;;1764819;80;615909;-76
2022/10/11 08:37:18;;;;;;;17.37;13.67;;;;;;;;;;1777905;78;617010;-76
2022/10/11 08:39:46;;;;;;;15.83;12.60;;;;;;;;;;1764811;80;615365;-76
2022/10/11 08:42:16;;;;;;;16.23;11.37;;;;;;;;;;1730583;80;616898;-76
2022/10/11 08:44:47;;;;;;;17.63;12.43;;;;;;;;;;1785678;77;615984;-76
2022/10/11 08:47:18;;;;;;;14.23;12.67;;;;;;;;;;1753513;79;617021;-76
2022/10/11 08:49:47;;;;;;;13.77;12.63;;;;;;;;;;1764993;80;616076;-77
2022/10/11 08:52:18;;;;;;;14.60;13.23;;;;;;;;;;1757074;80;617958;-77
2022/10/11 08:54:48;;;;;;;15.70;14.17;;;;;;;;;;1786116;78;615790;-77
2022/10/11 08:57:18;;;;;;;15.77;14.13;;;;;;;;;;1778646;78;616972;-76
2022/10/11 08:59:49;;;;;;;15.40;13.83;;;;;;;;;;1785822;78;614994;-77
2022/10/11 09:02:23;;;;;;;15.60;14.20;;;;;;;;;;1753466;79;616814;-76
2022/10/11 09:04:52;;;;;;;15.67;14.03;;;;;;;;;;1765165;77;615847;-76
2022/10/11 09:07:23;;;;;;;18.37;14.63;;;;;;;;;;1738066;80;617114;-77
2022/10/11 09:09:55;;;;;;;16.67;14.77;;;;;;;;;;1764932;80;615978;-76
2022/10/11 09:12:26;;;;;;;15.60;13.83;;;;;;;;;;1764570;80;617117;-77
2022/10/11 09:15:24;;;;;;;18.83;14.10;;;;;;;;;;1778138;76;616958;-77
2022/10/11 09:17:58;;;;;;;18.07;14.57;;;;;;;;;;1753089;79;615260;-80
2022/10/11 09:20:34;;;;;;;15.70;14.10;;;;;;;;;;1785234;78;616936;-79
2022/10/11 09:23:05;;;;;;;15.03;13.83;;;;;;;;;;1757214;80;617005;-80
2022/10/11 09:25:35;;;;;;;17.43;14.83;;;;;;;;;;1765117;80;617683;-79
2022/10/11 09:28:08;;;;;;;16.73;14.13;;;;;;;;;;1777953;78;616920;-79
2022/10/11 09:30:39;;;;;;;14.67;13.37;;;;;;;;;;1764471;79;617089;-80
2022/10/11 09:33:11;;;;;;;15.80;13.40;;;;;;;;;;1757216;80;617090;-79
2022/10/11 09:35:42;;;;;;;14.60;13.33;;;;;;;;;;1764730;79;617760;-79
2022/10/11 09:38:13;;;;;;;14.23;12.90;;;;;;;;;;1757404;80;616898;-80
2022/10/11 09:40:45;;;;;;;16.77;14.00;;;;;;;;;;1764999;80;615924;-79
2022/10/11 09:43:14;;;;;;;16.40;14.30;;;;;;;;;;1795666;77;616877;-79
2022/10/11 09:45:45;;;;;;;17.47;14.13;;;;;;;;;;1828161;76;616030;-79
2022/10/11 09:48:15;;;;;;;16.40;13.83;;;;;;;;;;1795753;77;616844;-79
2022/10/11 09:50:44;;;;;;;15.37;13.93;;;;;;;;;;1828262;76;615999;-81
2022/10/11 09:53:13;;;;;;;15.07;13.83;;;;;;;;;;1819981;75;617811;-79
2022/10/11 09:55:44;;;;;;;18.93;13.97;;;;;;;;;;1827861;76;615958;-79
2022/10/11 09:58:29;;;;;;;15.47;13.97;;;;;;;;;;1795922;77;617197;-79
2022/10/11 10:00:59;;;;;;;17.10;14.23;;;;;;;;;;1770328;78;616838;-80
2022/10/11 10:03:29;;;;;;;15.30;13.80;;;;;;;;;;1802643;77;617818;-81
2022/10/11 10:06:16;;;;;;;15.07;13.60;;;;;;;;;;1795727;78;616934;-79
2022/10/11 10:08:46;;;;;;;14.20;12.93;;;;;;;;;;1801761;78;615957;-79
2022/10/11 10:11:15;;;;;;;17.83;14.27;;;;;;;;;;1795394;77;617726;-78
2022/10/11 10:13:46;;;;;;;16.47;13.40;;;;;;;;;;1778425;79;616069;-79
2022/10/11 10:16:26;;;;;;;15.70;14.10;;;;;;;;;;1795474;77;616914;-78
2022/10/11 10:18:56;;;;;;;14.83;13.43;;;;;;;;;;1795533;78;617701;-79
2022/10/11 10:21:27;;;;;;;14.37;13.17;;;;;;;;;;1777667;79;617870;-79
2022/10/11 10:23:58;;;;;;;15.73;14.43;;;;;;;;;;1795699;77;618027;-79
2022/10/11 10:26:27;;;;;;;14.30;13.33;;;;;;;;;;1802060;77;617163;-79
2022/10/11 10:28:58;;;;;;;14.53;13.43;;;;;;;;;;1820455;76;616928;-79
2022/10/11 10:31:28;;;;;;;14.63;13.33;;;;;;;;;;1802316;77;617898;-79
2022/10/11 10:33:57;;;;;;;13.43;12.37;;;;;;;;;;1820332;76;616949;-79
2022/10/11 10:36:29;;;;;;;14.23;12.73;;;;;;;;;;1828031;76;617117;-79
2022/10/11 10:38:59;;;;;;;14.23;13.13;;;;;;;;;;1820063;76;617008;-78
2022/10/11 10:41:28;;;;;;;14.03;12.93;;;;;;;;;;1803373;78;616993;-79
2022/10/11 10:43:59;;;;;;;14.30;13.10;;;;;;;;;;1820755;76;616983;-79
2022/10/11 10:46:32;;;;;;;14.43;13.20;;;;;;;;;;1803538;77;616929;-79
2022/10/11 10:49:04;;;;;;;14.27;12.97;;;;;;;;;;1795536;77;616629;-79
2022/10/11 10:51:37;;;;;;;13.97;12.80;;;;;;;;;;1803359;77;617904;-79
2022/10/11 10:54:07;;;;;;;14.00;12.80;;;;;;;;;;1795752;77;616875;-79
2022/10/11 10:56:38;;;;;;;15.43;13.83;;;;;;;;;;1827712;76;616939;-79
2022/10/11 10:59:13;;;;;;;13.70;12.70;;;;;;;;;;1795553;77;620556;-79
2022/10/11 11:01:45;;;;;;;14.37;13.00;;;;;;;;;;1803376;77;616028;-79
2022/10/11 11:04:17;;;;;;;14.80;13.30;;;;;;;;;;1795743;77;617874;-81
2022/10/11 11:06:47;;;;;;;14.70;13.23;;;;;;;;;;1803185;77;615099;-80
2022/10/11 11:09:26;;;;;;;13.63;12.33;;;;;;;;;;1795808;77;616920;-79
2022/10/11 11:11:58;;;;;;;14.53;13.13;;;;;;;;;;1798155;77;617740;-79
2022/10/11 11:14:32;;;;;;;14.70;13.30;;;;;;;;;;1783587;78;617219;-79
2022/10/11 11:17:04;;;;;;;14.97;13.00;;;;;;;;;;1766041;80;616863;-79
2022/10/11 11:19:37;;;;;;;13.00;11.90;;;;;;;;;;1803663;77;617711;-80
2022/10/11 11:22:08;;;;;;;13.43;12.20;;;;;;;;;;1795663;77;616881;-79
2022/10/11 11:24:40;;;;;;;13.53;12.50;;;;;;;;;;1827859;76;617706;-79
2022/10/11 11:27:12;;;;;;;13.33;12.23;;;;;;;;;;1796059;78;617049;-78
2022/10/11 11:29:43;;;;;;;13.43;12.23;;;;;;;;;;1803513;77;615832;-78
2022/10/11 11:32:15;;;;;;;13.10;12.10;;;;;;;;;;1770508;78;616972;-79
2022/10/11 11:34:46;;;;;;;13.87;12.83;;;;;;;;;;1803188;77;615938;-78
2022/10/11 11:37:17;;;;;;;15.47;14.00;;;;;;;;;;1796135;77;617854;-79
2022/10/11 11:39:48;;;;;;;14.70;13.50;;;;;;;;;;1803651;77;615983;-79
2022/10/11 11:42:19;;;;;;;14.90;13.80;;;;;;;;;;1795957;77;617029;-79
2022/10/11 11:44:49;;;;;;;15.10;13.90;;;;;;;;;;1803672;76;615787;-79
2022/10/11 11:47:21;;;;;;;15.27;13.87;;;;;;;;;;1794508;77;616935;-79
2022/10/11 11:49:55;;;;;;;14.47;13.27;;;;;;;;;;1778059;79;615927;-79
2022/10/11 11:52:25;;;;;;;15.40;14.13;;;;;;;;;;1803372;77;617712;-80
2022/10/11 11:54:56;;;;;;;14.33;13.10;;;;;;;;;;1803716;77;616029;-79
2022/10/11 11:57:28;;;;;;;13.70;12.70;;;;;;;;;;1802435;77;617899;-80
2022/10/11 11:59:58;;;;;;;14.23;12.90;;;;;;;;;;1795937;77;617793;-79
2022/10/11 12:02:37;;;;;;;13.83;12.73;;;;;;;;;;1802546;77;617673;-79
2022/10/11 12:05:07;;;;;;;13.50;12.57;;;;;;;;;;1770849;78;617853;-79
2022/10/11 12:07:45;;;;;;;13.33;12.03;;;;;;;;;;1803763;76;616561;-80
2022/10/11 12:10:19;;;;;;;13.87;12.70;;;;;;;;;;1770334;78;644601;-79
2022/10/11 12:12:47;;;;;;;12.60;11.60;;;;;;;;;;1802988;78;615848;-81
2022/10/11 12:15:21;;;;;;;13.73;12.87;;;;;;;;;;1795902;76;617836;-81
2022/10/11 12:18:03;;;;;;;12.97;11.97;;;;;;;;;;1803120;77;615945;-79
2022/10/11 12:20:35;;;;;;;13.00;12.00;;;;;;;;;;1803821;78;616967;-77
2022/10/11 12:23:05;;;;;;;13.67;12.47;;;;;;;;;;1795631;77;617778;-76
2022/10/11 12:25:38;;;;;;;13.27;12.03;;;;;;;;;;1778824;79;617000;-75
2022/10/11 12:28:25;;;;;;;12.90;11.70;;;;;;;;;;1820550;76;616883;-78
2022/10/11 12:30:55;;;;;;;14.53;13.13;;;;;;;;;;1803525;78;615859;-78
2022/10/11 12:33:27;;;;;;;13.53;12.40;;;;;;;;;;1802486;77;617991;-79
2022/10/11 12:36:03;;;;;;;13.47;12.43;;;;;;;;;;1791645;77;617823;-79
2022/10/11 12:38:32;;;;;;;12.60;11.70;;;;;;;;;;1813925;75;616966;-79
2022/10/11 12:41:09;;;;;;;12.80;11.77;;;;;;;;;;1795904;77;617930;-79
2022/10/11 12:43:39;;;;;;;12.80;11.80;;;;;;;;;;1824361;76;617706;-79
2022/10/11 12:46:25;;;;;;;13.70;12.40;;;;;;;;;;1792990;76;616891;-79
2022/10/11 12:48:54;;;;;;;13.27;12.33;;;;;;;;;;1821811;76;615916;-79
2022/10/11 12:51:27;;;;;;;12.53;11.53;;;;;;;;;;1803282;77;617732;-79
2022/10/11 12:54:05;;;;;;;13.23;11.87;;;;;;;;;;1795584;77;617818;-80
2022/10/11 12:56:39;;;;;;;13.17;11.83;;;;;;;;;;1803148;77;617929;-79
2022/10/11 12:59:13;;;;;;;12.77;11.70;;;;;;;;;;1820194;76;617665;-81
2022/10/11 13:01:50;;;;;;;12.23;11.47;;;;;;;;;;1827946;76;615717;-81
2022/10/11 13:04:21;;;;;;;13.30;12.13;;;;;;;;;;1795456;78;617795;-81
2022/10/11 13:06:53;;;;;;;12.73;11.63;;;;;;;;;;1828410;76;615194;-80
2022/10/11 13:09:27;;;;;;;12.13;11.23;;;;;;;;;;1827989;76;616569;-80
2022/10/11 13:11:57;;;;;;;12.00;11.00;;;;;;;;;;1794624;77;617747;-79
2022/10/11 13:14:28;;;;;;;12.20;11.10;;;;;;;;;;1803314;76;616939;-80
2022/10/11 13:16:59;;;;;;;13.17;11.93;;;;;;;;;;1795370;77;617780;-80
2022/10/11 13:19:30;;;;;;;13.80;12.47;;;;;;;;;;1803331;77;617878;-80
2022/10/11 13:22:00;;;;;;;12.43;11.47;;;;;;;;;;1795326;77;617713;-79
2022/10/11 13:24:30;;;;;;;12.33;11.20;;;;;;;;;;1803271;77;617761;-80
2022/10/11 13:27:00;;;;;;;12.40;11.37;;;;;;;;;;1794205;77;617825;-77
2022/10/11 13:29:32;;;;;;;13.07;12.00;;;;;;;;;;1803298;77;616833;-77
2022/10/11 13:32:04;;;;;;;12.93;11.93;;;;;;;;;;1795408;78;617746;-77
2022/10/11 13:34:35;;;;;;;13.23;12.00;;;;;;;;;;1803312;77;617172;-77
2022/10/11 13:37:04;;;;;;;12.67;11.40;;;;;;;;;;1795557;78;617713;-77
2022/10/11 13:39:36;;;;;;;12.93;11.73;;;;;;;;;;1803405;77;617706;-77
2022/10/11 13:42:07;;;;;;;12.63;11.70;;;;;;;;;;1795653;77;617006;-77
2022/10/11 13:44:38;;;;;;;12.57;11.63;;;;;;;;;;1803426;76;617052;-78
2022/10/11 13:47:11;;;;;;;12.43;11.53;;;;;;;;;;1796507;77;616877;-78
2022/10/11 13:49:40;;;;;;;12.27;11.37;;;;;;;;;;1831754;76;617854;-77
2022/10/11 13:52:20;;;;;;;13.50;12.30;;;;;;;;;;1803920;77;617092;-78
2022/10/11 13:54:57;;;;;;;12.67;11.57;;;;;;;;;;1812152;77;615860;-80
2022/10/11 13:57:33;;;;;;;13.00;11.87;;;;;;;;;;1812385;77;618008;-76
2022/10/11 14:00:04;;;;;;;12.83;11.63;;;;;;;;;;1804392;78;617749;-76
2022/10/11 14:02:36;;;;;;;12.20;11.07;;;;;;;;;;1812092;77;616915;-76
2022/10/11 14:05:06;;;;;;;13.00;11.57;;;;;;;;;;1776570;77;617876;-76
2022/10/11 14:07:36;;;;;;;11.60;10.60;;;;;;;;;;1812154;77;617862;-76
2022/10/11 14:10:06;;;;;;;11.37;10.37;;;;;;;;;;1804484;77;616867;-77
2022/10/11 14:12:38;;;;;;;11.33;10.37;;;;;;;;;;1812106;77;616955;-76
2022/10/11 14:15:11;;;;;;;11.93;10.87;;;;;;;;;;1804443;77;616864;-77
2022/10/11 14:17:41;;;;;;;11.30;10.27;;;;;;;;;;1810690;77;616059;-76
2022/10/11 14:20:15;;;;;;;11.17;10.07;;;;;;;;;;1826836;76;617786;-76
2022/10/11 14:22:44;;;;;;;11.97;10.67;;;;;;;;;;1812425;77;615906;-76
2022/10/11 14:25:13;;;;;;;11.97;11.00;;;;;;;;;;1804431;77;616871;-76